Time;durP1;ratioP1;P1;durP2;ratioP2;P2;SDS_P1;SDS_P2;PMS_P1;PMS_P2;Temp;Humidity;BMP_temperature;BMP_pressure;BME280_temperature;BME280_humidity;BME280_pressure;Samples;Min_cycle;Max_cycle;Signal;HPM_P1;HPM_P2
2022/07/31 00:00:13;;;;;;;0.10;0.10;;;;;;;22.54;54.06;101395.72;5113293;27;20055;-38
2022/07/31 00:02:39;;;;;;;0.10;0.10;;;;;;;22.54;54.20;101395.72;5124863;27;20083;-37
2022/07/31 00:05:05;;;;;;;0.10;0.10;;;;;;;22.54;54.18;101398.47;5124310;27;20043;-37
2022/07/31 00:07:31;;;;;;;0.10;0.10;;;;;;;22.56;54.13;101398.19;5125785;27;20469;-39
2022/07/31 00:09:57;;;;;;;0.10;0.10;;;;;;;22.54;54.27;101402.09;5125412;27;20055;-38
2022/07/31 00:12:23;;;;;;;0.10;0.10;;;;;;;22.55;54.14;101400.13;5123402;27;20039;-39
2022/07/31 00:14:48;;;;;;;0.10;0.10;;;;;;;22.54;54.25;101404.03;5126513;27;20036;-38
2022/07/31 00:17:14;;;;;;;0.10;0.10;;;;;;;22.56;54.13;101399.00;5107017;27;20606;-39
2022/07/31 00:19:41;;;;;;;0.10;0.10;;;;;;;22.54;54.22;101401.25;5124614;27;20404;-40
2022/07/31 00:22:08;;;;;;;0.10;0.10;;;;;;;22.56;54.19;101395.41;5108445;27;20043;-38
2022/07/31 00:24:33;;;;;;;0.10;0.10;;;;;;;22.54;54.27;101390.97;5124879;27;20047;-39
2022/07/31 00:26:59;;;;;;;0.10;0.10;;;;;;;22.54;54.18;101390.16;5121398;27;20061;-38
2022/07/31 00:29:25;;;;;;;0.10;0.10;;;;;;;22.54;54.08;101384.59;5128333;27;20050;-37
2022/07/31 00:31:51;;;;;;;0.10;0.10;;;;;;;22.56;54.02;101387.06;5129348;27;20039;-38
2022/07/31 00:34:16;;;;;;;0.10;0.10;;;;;;;22.54;54.50;101381.81;5124556;27;20104;-39
2022/07/31 00:36:42;;;;;;;0.10;0.10;;;;;;;22.54;54.26;101373.50;5128288;27;20040;-39
2022/07/31 00:39:09;;;;;;;0.10;0.10;;;;;;;22.55;54.19;101372.38;5128396;27;20056;-39
2022/07/31 00:41:38;;;;;;;0.10;0.10;;;;;;;22.54;54.14;101370.72;5125194;27;20123;-39
2022/07/31 00:44:04;;;;;;;0.10;0.10;;;;;;;22.54;54.23;101374.31;5106105;28;20089;-39
2022/07/31 00:46:37;;;;;;;0.10;0.10;;;;;;;22.55;54.23;101366.81;5119045;27;20130;-37
2022/07/31 00:49:08;;;;;;;0.10;0.10;;;;;;;22.56;54.23;101364.88;5131814;27;20078;-39
2022/07/31 00:51:35;;;;;;;0.10;0.10;;;;;;;22.54;54.28;101366.00;5126638;27;20039;-39
2022/07/31 00:54:01;;;;;;;0.10;0.10;;;;;;;22.55;54.22;101369.59;5131425;27;20142;-39
2022/07/31 00:56:27;;;;;;;0.10;0.10;;;;;;;22.55;54.13;101361.28;5129818;27;20129;-39
2022/07/31 00:58:54;;;;;;;0.10;0.10;;;;;;;22.55;54.04;101369.59;5129617;27;20046;-39
2022/07/31 01:01:21;;;;;;;0.10;0.10;;;;;;;22.56;54.16;101367.66;5109482;27;20139;-38
2022/07/31 01:03:47;;;;;;;0.10;0.10;;;;;;;22.54;54.16;101363.22;5125732;27;20116;-38
2022/07/31 01:06:12;;;;;;;0.10;0.10;;;;;;;22.54;54.25;101363.22;5108509;28;20511;-38
2022/07/31 01:08:38;;;;;;;0.10;0.10;;;;;;;22.56;54.23;101364.88;5126712;27;20491;-38
2022/07/31 01:11:08;;;;;;;0.10;0.10;;;;;;;22.56;54.23;101359.31;5129743;27;20051;-38
2022/07/31 01:13:43;;;;;;;0.10;0.10;;;;;;;22.54;54.22;101363.22;5105630;27;20052;-38
2022/07/31 01:16:09;;;;;;;0.10;0.10;;;;;;;22.55;53.92;101358.50;5127550;27;20071;-38
2022/07/31 01:18:37;;;;;;;0.10;0.10;;;;;;;22.55;54.14;101355.72;5128615;27;20071;-40
2022/07/31 01:21:06;;;;;;;0.10;0.10;;;;;;;22.54;54.16;101348.53;5124711;27;20071;-38
2022/07/31 01:23:48;;;;;;;0.10;0.10;;;;;;;22.56;54.31;101348.22;5094130;27;20126;-39
2022/07/31 01:26:34;;;;;;;0.10;0.10;;;;;;;22.55;54.17;101352.94;5106955;28;20048;-38
2022/07/31 01:29:08;;;;;;;0.10;0.10;;;;;;;22.55;54.23;101341.84;5127747;27;20134;-37
2022/07/31 01:31:52;;;;;;;0.10;0.10;;;;;;;22.56;54.21;101348.22;5098207;28;20133;-38
2022/07/31 01:34:26;;;;;;;0.10;0.10;;;;;;;22.54;54.20;101343.78;5125328;27;20131;-37
2022/07/31 01:36:57;;;;;;;0.10;0.10;;;;;;;22.54;54.12;101346.56;5112425;28;20127;-38
2022/07/31 01:39:24;;;;;;;0.10;0.10;;;;;;;22.55;54.25;101341.84;5108310;27;20040;-37
2022/07/31 01:41:52;;;;;;;0.10;0.10;;;;;;;22.54;54.19;101343.78;5127330;27;20566;-39
2022/07/31 01:44:18;;;;;;;0.10;0.10;;;;;;;22.55;54.28;101350.16;5125519;27;20079;-38
2022/07/31 01:46:44;;;;;;;0.10;0.10;;;;;;;22.56;54.12;101351.81;5128491;27;20075;-36
2022/07/31 01:49:11;;;;;;;0.10;0.10;;;;;;;22.56;54.14;101345.44;5130631;27;20054;-36
2022/07/31 01:51:37;;;;;;;0.10;0.10;;;;;;;22.56;54.17;101354.59;5130808;27;20166;-39
2022/07/31 01:54:03;;;;;;;0.10;0.10;;;;;;;22.55;54.24;101339.06;5130312;27;20074;-39
2022/07/31 01:56:30;;;;;;;0.10;0.10;;;;;;;22.56;54.24;101345.44;5127112;27;20162;-37
2022/07/31 01:58:58;;;;;;;0.10;0.10;;;;;;;22.54;54.20;101329.91;5107561;27;20520;-38
2022/07/31 02:01:25;;;;;;;0.10;0.10;;;;;;;22.54;54.25;101329.91;5103560;28;20127;-39
2022/07/31 02:03:54;;;;;;;0.10;0.10;;;;;;;22.54;54.19;101335.47;5128509;27;20047;-39
2022/07/31 02:06:22;;;;;;;0.10;0.10;;;;;;;22.54;54.26;101337.41;5123884;27;20035;-39
2022/07/31 02:08:50;;;;;;;0.10;0.10;;;;;;;22.56;54.23;101337.13;5131531;27;20104;-38
2022/07/31 02:11:17;;;;;;;0.10;0.10;;;;;;;22.56;54.14;101339.88;5128977;27;20088;-39
2022/07/31 02:13:44;;;;;;;0.10;0.10;;;;;;;22.54;54.21;101332.69;5107982;27;20042;-39
2022/07/31 02:16:11;;;;;;;0.10;0.10;;;;;;;22.54;54.25;101332.69;5107719;27;20877;-37
2022/07/31 02:18:37;;;;;;;0.10;0.10;;;;;;;22.55;54.11;101330.72;5131317;27;20208;-37
2022/07/31 02:21:03;;;;;;;0.10;0.10;;;;;;;22.56;54.18;101329.59;5126969;27;20085;-37
2022/07/31 02:23:29;;;;;;;0.10;0.10;;;;;;;22.55;54.23;101333.50;5128790;27;20043;-39
2022/07/31 02:25:55;;;;;;;0.10;0.10;;;;;;;22.55;54.21;101330.72;5124630;27;20043;-39
2022/07/31 02:28:21;;;;;;;0.10;0.10;;;;;;;22.54;54.21;101327.13;5128994;27;20039;-38
2022/07/31 02:30:48;;;;;;;0.10;0.10;;;;;;;22.56;54.20;101323.22;5124406;27;20040;-37
2022/07/31 02:33:20;;;;;;;0.10;0.10;;;;;;;22.55;54.24;101322.41;5126689;27;20134;-39
2022/07/31 02:35:48;;;;;;;0.10;0.10;;;;;;;22.56;53.98;101329.59;5123857;27;20509;-39
2022/07/31 02:38:15;;;;;;;0.10;0.10;;;;;;;22.55;54.21;101322.41;5097867;27;20149;-38
2022/07/31 02:40:50;;;;;;;0.10;0.10;;;;;;;22.55;54.19;101322.41;5125799;27;20461;-37
2022/07/31 02:43:16;;;;;;;0.10;0.10;;;;;;;22.55;54.24;101322.41;5107331;27;20477;-39
2022/07/31 02:45:42;;;;;;;0.15;0.15;;;;;;;22.56;54.25;101326.00;5119136;27;20130;-38
2022/07/31 02:48:08;;;;;;;0.10;0.10;;;;;;;22.55;54.19;101325.19;5133988;27;20089;-39
2022/07/31 02:50:34;;;;;;;0.10;0.10;;;;;;;22.55;54.25;101327.97;5124990;27;20043;-39
2022/07/31 02:53:00;;;;;;;0.10;0.10;;;;;;;22.55;54.20;101322.41;5110133;27;20070;-37
2022/07/31 02:55:26;;;;;;;0.10;0.10;;;;;;;22.55;54.28;101330.72;5129671;27;20093;-38
2022/07/31 02:57:52;;;;;;;0.10;0.10;;;;;;;22.54;54.17;101329.91;5115149;27;20047;-37
2022/07/31 03:00:21;;;;;;;0.10;0.10;;;;;;;22.54;54.38;101332.69;5128459;27;20051;-37
2022/07/31 03:02:48;;;;;;;0.10;0.10;;;;;;;22.55;54.24;101330.72;5109037;27;20050;-37
2022/07/31 03:05:15;;;;;;;0.10;0.10;;;;;;;22.54;54.29;101318.81;5124697;27;20176;-38
2022/07/31 03:07:41;;;;;;;0.10;0.10;;;;;;;22.54;54.14;101324.38;5106800;28;20131;-38
2022/07/31 03:10:09;;;;;;;0.10;0.10;;;;;;;22.56;54.07;101326.00;5130167;27;20142;-37
2022/07/31 03:12:38;;;;;;;0.10;0.10;;;;;;;22.54;54.26;101323.53;5125040;27;20081;-38
2022/07/31 03:15:08;;;;;;;0.10;0.10;;;;;;;22.55;54.24;101322.41;5127691;27;20071;-38
2022/07/31 03:17:36;;;;;;;0.10;0.10;;;;;;;22.55;54.28;101325.19;5126130;27;20070;-38
2022/07/31 03:20:07;;;;;;;0.10;0.10;;;;;;;22.54;54.26;101318.00;5106693;27;20058;-40
2022/07/31 03:22:33;;;;;;;0.10;0.10;;;;;;;22.54;54.14;101323.53;5107394;27;20485;-39
2022/07/31 03:24:59;;;;;;;0.10;0.10;;;;;;;22.54;54.24;101320.75;5119819;27;20070;-37
2022/07/31 03:27:25;;;;;;;0.10;0.10;;;;;;;22.54;54.13;101320.75;5124585;27;20074;-37
2022/07/31 03:29:51;;;;;;;0.10;0.10;;;;;;;22.54;54.31;101320.75;5125460;27;20101;-38
2022/07/31 03:32:16;;;;;;;0.10;0.10;;;;;;;22.56;54.21;101331.56;5123427;27;20051;-37
2022/07/31 03:34:42;;;;;;;0.10;0.10;;;;;;;22.54;54.17;101327.13;5123301;27;20041;-38
2022/07/31 03:37:09;;;;;;;0.10;0.10;;;;;;;22.55;54.33;101325.19;5127279;27;20050;-39
2022/07/31 03:39:34;;;;;;;0.10;0.10;;;;;;;22.54;54.18;101323.53;5126377;27;20063;-38
2022/07/31 03:42:01;;;;;;;0.10;0.10;;;;;;;22.54;54.17;101329.09;5127630;27;20405;-39
2022/07/31 03:44:27;;;;;;;0.10;0.10;;;;;;;22.54;54.24;101332.69;5106940;27;20221;-37
2022/07/31 03:46:53;;;;;;;0.10;0.10;;;;;;;22.55;54.25;101319.63;5126096;27;20413;-39
2022/07/31 03:49:19;;;;;;;0.20;0.20;;;;;;;22.54;54.22;101321.59;5122666;27;20048;-36
2022/07/31 03:51:45;;;;;;;0.10;0.10;;;;;;;22.54;54.31;101329.91;5125181;27;20066;-37
2022/07/31 03:54:10;;;;;;;0.10;0.10;;;;;;;22.54;54.15;101329.91;5110570;28;20043;-38
2022/07/31 03:56:36;;;;;;;0.20;0.20;;;;;;;22.55;54.23;101319.63;5123660;27;20086;-37
2022/07/31 03:59:03;;;;;;;0.10;0.10;;;;;;;22.55;54.21;101319.63;5127560;27;20142;-39
2022/07/31 04:01:29;;;;;;;0.10;0.10;;;;;;;22.54;54.23;101316.03;5127696;27;20064;-39
2022/07/31 04:04:16;;;;;;;0.10;0.10;;;;;;;22.54;54.11;101323.53;5104734;27;20058;-34
2022/07/31 04:06:43;;;;;;;0.10;0.10;;;;;;;22.54;54.23;101326.31;5107834;28;20393;-37
2022/07/31 04:09:09;;;;;;;0.10;0.10;;;;;;;22.56;54.24;101331.56;5121608;27;20046;-39
2022/07/31 04:11:44;;;;;;;0.10;0.10;;;;;;;22.53;54.14;101331.00;5126625;27;20061;-38
2022/07/31 04:14:10;;;;;;;0.10;0.10;;;;;;;22.54;54.26;101331.88;5110744;28;20051;-38
2022/07/31 04:16:35;;;;;;;0.10;0.10;;;;;;;22.55;54.24;101330.72;5122100;27;20405;-38
2022/07/31 04:19:01;;;;;;;0.10;0.10;;;;;;;22.54;54.32;101329.09;5126271;27;20048;-37
2022/07/31 04:21:26;;;;;;;0.20;0.20;;;;;;;22.55;54.22;101322.41;5104494;27;20087;-37
2022/07/31 04:23:52;;;;;;;0.10;0.10;;;;;;;22.54;54.13;101327.13;5125824;27;20043;-38
2022/07/31 04:26:18;;;;;;;0.10;0.10;;;;;;;22.54;54.20;101323.53;5132100;27;20126;-39
2022/07/31 04:28:51;;;;;;;0.10;0.10;;;;;;;22.54;54.21;101338.25;5129010;27;20070;-38
2022/07/31 04:31:17;;;;;;;0.10;0.10;;;;;;;22.54;54.31;101332.69;5127255;27;20115;-39
2022/07/31 04:33:42;;;;;;;0.10;0.10;;;;;;;22.54;54.30;101343.78;5130892;27;20058;-38
2022/07/31 04:36:14;;;;;;;0.10;0.10;;;;;;;22.53;54.21;101331.00;5132558;27;20065;-37
2022/07/31 04:38:55;;;;;;;0.10;0.10;;;;;;;22.54;54.47;101342.97;5130133;27;20039;-37
2022/07/31 04:41:21;;;;;;;0.10;0.10;;;;;;;22.54;54.24;101338.25;5127678;27;20537;-37
2022/07/31 04:43:46;;;;;;;0.10;0.10;;;;;;;22.54;54.15;101332.69;5125990;27;20447;-37
2022/07/31 04:46:12;;;;;;;0.10;0.10;;;;;;;22.54;54.31;101337.41;5130123;27;20035;-37
2022/07/31 04:48:43;;;;;;;0.10;0.10;;;;;;;22.53;54.20;101328.22;5130285;27;20039;-36
2022/07/31 04:51:18;;;;;;;0.10;0.10;;;;;;;22.54;54.30;101335.47;5129478;27;20102;-35
2022/07/31 04:53:44;;;;;;;0.10;0.10;;;;;;;22.55;54.25;101339.06;5129902;27;20047;-37
2022/07/31 04:56:41;;;;;;;0.22;0.22;;;;;;;22.54;54.21;101335.47;5129116;27;20071;-39
2022/07/31 04:58:56;;;;;;;0.10;0.10;;;;;;;22.54;54.24;101331.88;5107225;27;20074;-37
2022/07/31 05:01:22;;;;;;;0.10;0.10;;;;;;;22.54;54.22;101335.47;5130073;27;20049;-37
2022/07/31 05:03:47;;;;;;;0.10;0.10;;;;;;;22.54;54.21;101340.19;5125929;27;20035;-37
2022/07/31 05:06:13;;;;;;;0.10;0.10;;;;;;;22.56;54.22;101342.66;5123953;27;20066;-37
2022/07/31 05:08:39;;;;;;;0.10;0.10;;;;;;;22.54;54.20;101343.78;5108741;27;20734;-38
2022/07/31 05:11:36;;;;;;;0.10;0.10;;;;;;;22.55;54.28;101350.16;5110640;28;20054;-39
2022/07/31 05:13:53;;;;;;;0.10;0.10;;;;;;;22.55;54.30;101341.84;5113733;27;20074;-37
2022/07/31 05:16:19;;;;;;;;;;;;;;;22.54;54.20;101343.78;5128559;27;20078;-37
2022/07/31 05:18:45;;;;;;;0.10;0.10;;;;;;;22.54;54.31;101338.25;5110395;27;19927;-39
2022/07/31 05:21:12;;;;;;;0.10;0.10;;;;;;;22.56;54.31;101339.88;5131596;27;20093;-38
2022/07/31 05:23:39;;;;;;;0.10;0.10;;;;;;;22.54;54.37;101338.25;5108165;28;20138;-37
2022/07/31 05:26:04;;;;;;;0.10;0.10;;;;;;;22.54;54.28;101341.00;5124783;27;20066;-37
2022/07/31 05:28:30;;;;;;;0.10;0.10;;;;;;;22.55;54.14;101344.63;5107020;27;20043;-39
2022/07/31 05:30:56;;;;;;;0.10;0.10;;;;;;;22.54;54.24;101341.00;5109701;28;20039;-37
2022/07/31 05:33:22;;;;;;;0.10;0.10;;;;;;;22.56;54.27;101342.66;5107740;27;20477;-37
2022/07/31 05:35:48;;;;;;;0.10;0.10;;;;;;;22.54;54.17;101335.47;5126625;27;20067;-36
2022/07/31 05:38:13;;;;;;;0.10;0.10;;;;;;;22.56;54.22;101339.88;5112247;27;20051;-37
2022/07/31 05:40:39;;;;;;;0.10;0.10;;;;;;;22.54;54.20;101340.19;5110473;28;20158;-37
2022/07/31 05:43:05;;;;;;;0.10;0.10;;;;;;;22.54;54.38;101340.19;5124235;27;20381;-39
2022/07/31 05:45:31;;;;;;;0.10;0.10;;;;;;;22.55;54.14;101336.28;5128528;27;20040;-37
2022/07/31 05:47:56;;;;;;;0.10;0.10;;;;;;;22.54;54.23;101335.47;5125832;27;20489;-38
2022/07/31 05:50:22;;;;;;;0.10;0.10;;;;;;;22.54;54.24;101332.69;5132836;27;20047;-37
2022/07/31 05:52:49;;;;;;;0.13;0.13;;;;;;;22.55;54.33;101341.84;5127379;27;20043;-37
2022/07/31 05:55:14;;;;;;;0.10;0.10;;;;;;;22.54;54.25;101338.25;5129012;27;20116;-39
2022/07/31 05:57:40;;;;;;;0.10;0.10;;;;;;;22.54;54.27;101335.47;5128856;27;20051;-38
2022/07/31 06:00:07;;;;;;;0.10;0.10;;;;;;;22.55;54.17;101339.06;5124008;27;20489;-38
2022/07/31 06:02:34;;;;;;;;;;;;;;;22.54;54.40;101327.13;5091294;28;20050;-37
2022/07/31 06:05:00;;;;;;;0.10;0.10;;;;;;;22.54;54.14;101338.25;5121200;27;19927;-37
2022/07/31 06:07:27;;;;;;;0.10;0.10;;;;;;;22.54;54.41;101331.88;5093737;27;20396;-39
2022/07/31 06:09:52;;;;;;;0.10;0.10;;;;;;;22.54;54.28;101329.91;5108080;28;20129;-37
2022/07/31 06:12:18;;;;;;;0.10;0.10;;;;;;;22.54;54.32;101334.63;5127124;27;20050;-39
2022/07/31 06:14:44;;;;;;;0.10;0.10;;;;;;;22.54;54.32;101338.25;5126176;27;20046;-38
2022/07/31 06:17:10;;;;;;;0.10;0.10;;;;;;;22.54;54.24;101335.47;5124851;27;20066;-37
2022/07/31 06:19:36;;;;;;;0.10;0.10;;;;;;;22.54;54.17;101341.00;5109427;27;20385;-39
2022/07/31 06:22:01;;;;;;;0.10;0.10;;;;;;;22.55;54.16;101341.84;5110121;27;20039;-40
2022/07/31 06:24:27;;;;;;;0.10;0.10;;;;;;;22.54;54.17;101343.78;5125643;27;20046;-39
2022/07/31 06:26:58;;;;;;;0.10;0.10;;;;;;;22.54;54.37;101338.25;5125713;27;20051;-38
2022/07/31 06:29:26;;;;;;;0.10;0.10;;;;;;;22.55;54.19;101333.50;5108822;27;20035;-39
2022/07/31 06:32:07;;;;;;;0.10;0.10;;;;;;;22.55;54.30;101327.97;5125272;27;20046;-38
2022/07/31 06:34:33;;;;;;;0.10;0.10;;;;;;;22.56;54.25;101326.84;5103027;28;20043;-37
2022/07/31 06:36:59;;;;;;;0.10;0.10;;;;;;;22.55;54.31;101325.19;5126296;27;20042;-39
2022/07/31 06:39:24;;;;;;;0.10;0.10;;;;;;;22.55;54.27;101319.63;5131164;27;20063;-37
2022/07/31 06:42:10;;;;;;;0.10;0.10;;;;;;;22.54;54.26;101331.88;5107947;27;20405;-39
2022/07/31 06:44:36;;;;;;;0.10;0.10;;;;;;;22.55;54.29;101336.28;5103846;27;20488;-39
2022/07/31 06:47:11;;;;;;;0.10;0.10;;;;;;;22.56;54.31;101342.66;5120138;27;20045;-37
2022/07/31 06:49:41;;;;;;;0.10;0.10;;;;;;;22.55;54.29;101347.38;5123617;27;20050;-37
2022/07/31 06:52:07;;;;;;;0.10;0.10;;;;;;;22.54;54.18;101345.75;5123404;27;20061;-39
2022/07/31 06:54:33;;;;;;;0.10;0.10;;;;;;;22.54;54.27;101357.66;5125379;27;20443;-38
2022/07/31 06:56:58;;;;;;;0.10;0.10;;;;;;;22.54;54.30;101349.34;5126112;27;20054;-38
2022/07/31 06:59:24;;;;;;;0.10;0.10;;;;;;;22.54;54.23;101354.91;5107301;27;20048;-38
2022/07/31 07:02:06;;;;;;;0.10;0.10;;;;;;;22.56;54.13;101351.00;5111518;27;20047;-37
2022/07/31 07:04:33;;;;;;;0.10;0.10;;;;;;;22.56;54.32;101349.03;5119052;27;20317;-39
2022/07/31 07:07:18;;;;;;;0.10;0.10;;;;;;;22.54;54.20;101343.78;5111241;27;20051;-38
2022/07/31 07:09:44;;;;;;;0.10;0.10;;;;;;;22.54;54.21;101337.41;5129565;27;20045;-37
2022/07/31 07:12:09;;;;;;;0.10;0.10;;;;;;;22.54;54.29;101349.34;5127740;27;20125;-36
2022/07/31 07:14:42;;;;;;;0.10;0.10;;;;;;;22.55;54.15;101344.63;5124411;27;20498;-39
2022/07/31 07:17:08;;;;;;;0.10;0.10;;;;;;;22.55;54.33;101347.38;5101887;27;20571;-37
2022/07/31 07:19:33;;;;;;;0.10;0.10;;;;;;;22.54;54.25;101349.34;5128328;27;20091;-37
2022/07/31 07:21:59;;;;;;;0.10;0.10;;;;;;;22.56;54.30;101345.44;5124610;27;20433;-37
2022/07/31 07:24:25;;;;;;;0.10;0.10;;;;;;;22.56;54.21;101345.44;5125049;27;20398;-36
2022/07/31 07:26:50;;;;;;;0.10;0.10;;;;;;;22.56;54.33;101331.56;5125191;27;20385;-39
2022/07/31 07:29:17;;;;;;;0.10;0.10;;;;;;;22.56;54.20;101331.56;5127524;27;20051;-37
2022/07/31 07:31:43;;;;;;;0.10;0.10;;;;;;;22.54;54.24;101332.69;5128404;27;20078;-36
2022/07/31 07:34:08;;;;;;;0.10;0.10;;;;;;;22.55;54.34;101336.28;5104278;27;20130;-37
2022/07/31 07:36:34;;;;;;;0.10;0.10;;;;;;;22.56;54.20;101331.56;5126056;27;20039;-37
2022/07/31 07:39:00;;;;;;;0.10;0.10;;;;;;;22.54;54.20;101332.69;5103463;27;20039;-37
2022/07/31 07:41:26;;;;;;;0.10;0.10;;;;;;;22.56;54.23;101331.56;5108834;27;20078;-36
2022/07/31 07:43:52;;;;;;;0.10;0.10;;;;;;;22.56;54.27;101334.34;5120250;27;20047;-37
2022/07/31 07:46:20;;;;;;;0.10;0.10;;;;;;;22.55;54.17;101325.19;5105640;28;20043;-36
2022/07/31 07:48:46;;;;;;;0.10;0.10;;;;;;;22.54;54.13;101321.59;5132661;27;20056;-37
2022/07/31 07:51:12;;;;;;;0.10;0.10;;;;;;;22.56;54.16;101320.47;5122461;27;20280;-39
2022/07/31 07:53:39;;;;;;;0.10;0.10;;;;;;;22.54;54.32;101316.03;5130209;27;20131;-39
2022/07/31 07:56:04;;;;;;;0.10;0.10;;;;;;;22.54;54.13;101316.03;5126773;27;20140;-38
2022/07/31 07:58:30;;;;;;;0.10;0.10;;;;;;;22.55;54.08;101311.31;5127333;27;20427;-37
2022/07/31 08:00:56;;;;;;;0.10;0.10;;;;;;;22.55;53.99;101316.84;5128678;27;20053;-37
2022/07/31 08:03:21;;;;;;;0.10;0.10;;;;;;;22.56;54.22;101318.50;5128719;27;20043;-37
2022/07/31 08:06:07;;;;;;;0.10;0.10;;;;;;;22.54;54.34;101307.72;5105730;27;20066;-37
2022/07/31 08:08:35;;;;;;;0.10;0.10;;;;;;;22.56;54.33;101306.56;5130827;27;20084;-37
2022/07/31 08:11:02;;;;;;;0.10;0.10;;;;;;;22.54;54.30;101307.72;5127361;27;20039;-36
2022/07/31 08:13:27;;;;;;;0.10;0.10;;;;;;;22.56;54.25;101306.56;5129796;27;20142;-37
2022/07/31 08:15:54;;;;;;;0.10;0.10;;;;;;;22.54;54.20;101304.94;5129649;27;20047;-36
2022/07/31 08:18:19;;;;;;;0.10;0.10;;;;;;;22.54;54.25;101299.38;5131981;27;20047;-37
2022/07/31 08:20:45;;;;;;;0.10;0.10;;;;;;;22.55;54.23;101300.19;5124604;27;20178;-40
2022/07/31 08:23:11;;;;;;;0.10;0.10;;;;;;;22.56;54.22;101301.84;5129315;27;20035;-37
2022/07/31 08:25:43;;;;;;;0.10;0.10;;;;;;;22.55;54.32;101311.31;5124760;27;20046;-37
2022/07/31 08:28:09;;;;;;;0.22;0.22;;;;;;;22.56;54.33;101312.13;5126100;27;20401;-37
2022/07/31 08:30:44;;;;;;;0.10;0.10;;;;;;;22.54;54.27;101307.72;5127054;27;20446;-37
2022/07/31 08:33:10;;;;;;;0.10;0.10;;;;;;;22.55;54.21;101308.53;5126319;27;20073;-38
2022/07/31 08:35:36;;;;;;;0.10;0.10;;;;;;;22.56;54.27;101312.13;5128279;27;20652;-39
2022/07/31 08:38:02;;;;;;;0.10;0.10;;;;;;;22.57;54.34;101308.22;5131161;27;20046;-37
2022/07/31 08:40:30;;;;;;;;;;;;;;;22.54;54.29;101310.47;5113060;27;20038;-37
2022/07/31 08:42:56;;;;;;;0.10;0.10;;;;;;;22.54;54.30;101315.22;5127929;27;19928;-37
2022/07/31 08:45:26;;;;;;;0.10;0.10;;;;;;;22.55;54.28;101308.53;5133025;27;20043;-37
2022/07/31 08:47:54;;;;;;;0.10;0.10;;;;;;;22.55;54.24;101314.09;5122859;27;20077;-38
2022/07/31 08:50:20;;;;;;;0.20;0.20;;;;;;;22.55;54.16;101308.53;5131745;27;20055;-37
2022/07/31 08:52:48;;;;;;;0.10;0.10;;;;;;;22.56;54.31;101309.34;5129303;27;20044;-38
2022/07/31 08:55:14;;;;;;;0.10;0.10;;;;;;;22.56;54.31;101307.41;5127658;27;20131;-37
2022/07/31 08:58:00;;;;;;;0.10;0.10;;;;;;;22.56;54.08;101320.47;5106649;28;20055;-37
2022/07/31 09:00:27;;;;;;;0.10;0.10;;;;;;;22.56;54.22;101312.94;5130318;27;20042;-38
2022/07/31 09:02:53;;;;;;;0.10;0.10;;;;;;;22.56;54.19;101312.94;5130610;27;20382;-37
2022/07/31 09:05:20;;;;;;;0.10;0.10;;;;;;;22.55;54.12;101300.19;5130627;27;20173;-39
2022/07/31 09:07:46;;;;;;;0.10;0.10;;;;;;;22.55;54.34;101305.75;5136735;27;20089;-37
2022/07/31 09:10:27;;;;;;;0.10;0.10;;;;;;;22.56;54.32;101303.81;5132104;27;20055;-37
2022/07/31 09:12:54;;;;;;;0.10;0.10;;;;;;;22.56;54.31;101292.69;5095961;28;20135;-37
2022/07/31 09:15:21;;;;;;;0.10;0.10;;;;;;;22.56;54.35;101289.94;5107202;27;20445;-37
2022/07/31 09:17:47;;;;;;;0.10;0.10;;;;;;;22.56;54.39;101298.25;5108440;27;20540;-37
2022/07/31 09:20:22;;;;;;;0.10;0.10;;;;;;;22.55;54.11;101289.09;5124538;27;20054;-37
2022/07/31 09:22:54;;;;;;;0.10;0.10;;;;;;;22.56;54.20;101284.38;5106451;27;20134;-37
2022/07/31 09:25:20;;;;;;;0.10;0.10;;;;;;;22.55;54.30;101286.31;5107281;27;20137;-37
2022/07/31 09:27:46;;;;;;;0.10;0.10;;;;;;;22.56;54.30;101282.41;5132264;27;20129;-38
2022/07/31 09:30:13;;;;;;;0.10;0.10;;;;;;;22.56;54.14;101284.38;5111431;27;20492;-39
2022/07/31 09:32:38;;;;;;;0.10;0.10;;;;;;;22.54;54.24;101282.72;5127171;27;20070;-37
2022/07/31 09:35:07;;;;;;;0.10;0.10;;;;;;;22.54;54.36;101277.19;5128713;27;20048;-37
2022/07/31 09:37:33;;;;;;;0.10;0.10;;;;;;;22.56;54.27;101290.75;5114027;27;20122;-38
2022/07/31 09:39:59;;;;;;;0.10;0.10;;;;;;;22.57;54.31;101289.63;5112490;27;20081;-39
2022/07/31 09:42:34;;;;;;;0.10;0.10;;;;;;;22.56;54.23;101290.75;5127766;27;20050;-39
2022/07/31 09:45:00;;;;;;;0.10;0.10;;;;;;;22.54;54.28;101277.19;5128225;27;20473;-39
2022/07/31 09:47:28;;;;;;;0.10;0.10;;;;;;;22.56;54.29;101287.97;5130540;27;20050;-37
2022/07/31 09:49:57;;;;;;;0.10;0.10;;;;;;;22.57;54.43;101286.84;5098554;27;20079;-39
2022/07/31 09:52:23;;;;;;;0.10;0.10;;;;;;;22.56;54.23;101287.97;5091133;27;20085;-39
2022/07/31 09:55:00;;;;;;;0.10;0.10;;;;;;;22.55;54.20;101283.56;5128342;27;20075;-37
2022/07/31 09:57:26;;;;;;;0.10;0.10;;;;;;;22.56;54.30;101287.97;5113822;27;20122;-37
2022/07/31 09:59:52;;;;;;;0.15;0.15;;;;;;;22.54;54.30;101285.50;5106976;28;20039;-37
2022/07/31 10:02:18;;;;;;;0.10;0.10;;;;;;;22.54;54.13;101277.19;5127317;27;20405;-39
2022/07/31 10:04:46;;;;;;;0.10;0.10;;;;;;;22.54;54.36;101274.41;5105993;28;20082;-38
2022/07/31 10:07:12;;;;;;;0.10;0.10;;;;;;;22.56;54.36;101276.03;5127018;27;20047;-37
2022/07/31 10:09:59;;;;;;;0.10;0.10;;;;;;;22.56;54.31;101274.09;5128147;27;20053;-38
2022/07/31 10:12:27;;;;;;;0.20;0.20;;;;;;;22.56;54.23;101267.72;5124533;27;20097;-37
2022/07/31 10:14:55;;;;;;;0.10;0.10;;;;;;;22.56;54.35;101271.31;5126234;27;20094;-37
2022/07/31 10:17:24;;;;;;;0.10;0.10;;;;;;;22.56;54.32;101270.50;5095279;27;20084;-37
2022/07/31 10:19:50;;;;;;;0.10;0.10;;;;;;;22.56;54.29;101268.53;5114297;27;20467;-37
2022/07/31 10:22:18;;;;;;;0.10;0.10;;;;;;;22.56;54.29;101271.31;5106767;27;20537;-40
2022/07/31 10:24:46;;;;;;;;;;;;;;;22.56;54.18;101264.94;5127978;27;20086;-36
2022/07/31 10:27:13;;;;;;;;;;;;;;;22.54;54.34;101268.84;5124776;27;20373;-37
2022/07/31 10:29:39;;;;;;;0.10;0.10;;;;;;;22.54;54.25;101263.28;5106913;27;20294;-38
2022/07/31 10:32:06;;;;;;;0.10;0.10;;;;;;;22.54;54.24;101252.19;5109673;27;20086;-38
2022/07/31 10:34:32;;;;;;;0.10;0.10;;;;;;;22.55;54.30;101261.34;5122025;27;20089;-38
2022/07/31 10:37:07;;;;;;;0.10;0.10;;;;;;;22.54;54.39;101256.91;5105289;27;20058;-36
2022/07/31 10:39:54;;;;;;;0.10;0.10;;;;;;;22.57;54.23;101255.50;5123691;27;20523;-38
2022/07/31 10:43:00;;;;;;;0.10;0.10;;;;;;;22.56;54.37;101251.88;5129832;27;20135;-38
2022/07/31 10:45:30;;;;;;;0.20;0.20;;;;;;;22.56;54.32;101253.84;5109527;27;20378;-39
2022/07/31 10:47:57;;;;;;;0.10;0.10;;;;;;;22.56;54.23;101245.50;5128595;27;20067;-38
2022/07/31 10:50:24;;;;;;;0.10;0.10;;;;;;;22.56;54.22;101251.06;5125618;27;20078;-40
2022/07/31 10:52:50;;;;;;;0.10;0.10;;;;;;;22.55;54.23;101250.25;5090680;27;20447;-39
2022/07/31 10:55:21;;;;;;;0.10;0.10;;;;;;;22.56;54.18;101254.66;5109482;28;20108;-39
2022/07/31 10:57:47;;;;;;;0.10;0.10;;;;;;;22.56;54.25;101248.28;5122770;27;20080;-38
2022/07/31 11:00:25;;;;;;;0.10;0.10;;;;;;;22.56;54.36;101251.06;5128857;27;20086;-39
2022/07/31 11:02:55;;;;;;;0.10;0.10;;;;;;;22.56;54.21;101249.13;5104175;27;20178;-39
2022/07/31 11:05:22;;;;;;;0.10;0.10;;;;;;;22.56;54.21;101248.28;5125236;27;20457;-36
2022/07/31 11:08:00;;;;;;;0.10;0.10;;;;;;;22.57;54.22;101247.16;5107700;28;20075;-38
2022/07/31 11:10:25;;;;;;;0.10;0.10;;;;;;;22.57;54.00;101239.66;5105830;27;20138;-39
2022/07/31 11:13:09;;;;;;;0.10;0.10;;;;;;;22.56;54.32;101237.19;5107713;27;20051;-38
2022/07/31 11:15:36;;;;;;;0.10;0.10;;;;;;;22.56;54.20;101238.00;5094475;27;20510;-39
2022/07/31 11:18:18;;;;;;;0.10;0.10;;;;;;;22.56;54.37;101228.84;5106526;27;20151;-37
2022/07/31 11:21:00;;;;;;;0.10;0.10;;;;;;;22.56;54.22;101232.47;5114589;27;20122;-39
2022/07/31 11:23:43;;;;;;;0.10;0.10;;;;;;;22.56;54.30;101229.69;5110746;28;20039;-39
2022/07/31 11:26:28;;;;;;;0.10;0.10;;;;;;;22.56;54.31;101237.19;5122999;27;20474;-39
2022/07/31 11:29:06;;;;;;;0.10;0.10;;;;;;;22.55;54.30;101230.81;5126314;27;20424;-39
2022/07/31 11:31:52;;;;;;;0.10;0.10;;;;;;;22.57;54.27;101233.28;5115997;27;20046;-39